Time;durP1;ratioP1;P1;durP2;ratioP2;P2;SDS_P1;SDS_P2;PMS_P1;PMS_P2;Temp;Humidity;BMP_temperature;BMP_pressure;BME280_temperature;BME280_humidity;BME280_pressure;Samples;Min_cycle;Max_cycle;Signal;HPM_P1;HPM_P2
2022/09/30 00:04:13;;;;;;;3.47;1.60;;;7.70;93.00;;;;;;3197062;23;20303;-86
2022/09/30 00:06:40;;;;;;;2.20;0.95;;;7.70;93.00;;;;;;4851524;29;20058;-88
2022/09/30 00:09:10;;;;;;;3.88;1.67;;;7.70;93.10;;;;;;4854841;29;20072;-89
2022/09/30 00:11:38;;;;;;;1.90;0.80;;;7.70;93.10;;;;;;4847276;29;20045;-86
2022/09/30 00:14:21;;;;;;;2.70;1.30;;;7.70;93.10;;;;;;4848763;29;20117;-87
2022/09/30 00:16:49;;;;;;;4.53;1.20;;;7.70;93.10;;;;;;4855752;29;20666;-89
2022/09/30 00:19:16;;;;;;;3.53;1.30;;;7.70;93.10;;;;;;4845133;29;20050;-89
2022/09/30 00:21:45;;;;;;;1.85;0.85;;;7.70;93.10;;;;;;4842800;29;20045;-88
2022/09/30 00:24:16;;;;;;;2.40;1.23;;;7.70;93.10;;;;;;4850296;29;20587;-89
2022/09/30 00:26:43;;;;;;;1.88;0.80;;;7.70;93.20;;;;;;4849066;29;20474;-89
2022/09/30 00:29:11;;;;;;;2.80;1.65;;;7.70;93.10;;;;;;4833835;29;20508;-89
2022/09/30 00:31:38;;;;;;;2.45;1.23;;;7.70;93.10;;;;;;4845409;29;20049;-89
2022/09/30 00:34:06;;;;;;;2.67;1.30;;;7.60;93.10;;;;;;4853794;29;20092;-89
2022/09/30 00:36:44;;;;;;;2.67;1.13;;;7.60;93.10;;;;;;4856329;29;20149;-89
2022/09/30 00:39:19;;;;;;;2.40;1.00;;;7.60;93.10;;;;;;4857062;29;20125;-87
2022/09/30 00:41:50;;;;;;;2.38;1.15;;;7.60;93.20;;;;;;4847565;29;20054;-88
2022/09/30 00:44:52;;;;;;;2.42;0.88;;;7.60;93.20;;;;;;4844765;29;20053;-88
2022/09/30 00:47:28;;;;;;;2.67;1.05;;;7.60;93.20;;;;;;4851824;29;20054;-88
2022/09/30 00:49:59;;;;;;;1.83;1.13;;;7.60;93.20;;;;;;4853500;29;20057;-88
2022/09/30 00:52:26;;;;;;;2.22;1.10;;;7.50;93.20;;;;;;4842035;29;20073;-88
2022/09/30 00:54:57;;;;;;;1.92;0.80;;;7.50;93.20;;;;;;4852419;29;20049;-90
2022/09/30 00:57:24;;;;;;;2.63;1.13;;;7.50;93.20;;;;;;4837010;29;20050;-90
2022/09/30 00:59:51;;;;;;;2.85;1.10;;;7.50;93.20;;;;;;4858244;29;20049;-90
2022/09/30 01:02:19;;;;;;;3.25;0.90;;;7.50;93.20;;;;;;4850065;29;20049;-89
2022/09/30 01:04:48;;;;;;;2.78;1.20;;;7.50;93.50;;;;;;4849897;29;20086;-91
2022/09/30 01:07:15;;;;;;;2.10;1.17;;;7.40;93.20;;;;;;4850138;29;20052;-90
2022/09/30 01:09:44;;;;;;;2.28;1.00;;;7.40;93.20;;;;;;4834159;29;20124;-90
2022/09/30 01:12:19;;;;;;;1.52;0.80;;;7.40;93.20;;;;;;4837784;29;20045;-89
2022/09/30 01:14:52;;;;;;;2.35;1.13;;;7.40;93.20;;;;;;4846482;29;20151;-89
2022/09/30 01:17:26;;;;;;;2.05;0.90;;;7.40;93.20;;;;;;4849471;29;20045;-89
2022/09/30 01:20:20;;;;;;;2.45;1.00;;;7.40;93.30;;;;;;4847077;29;20064;-89
2022/09/30 01:23:16;;;;;;;2.78;1.00;;;7.40;93.30;;;;;;4868144;29;20143;-89
2022/09/30 01:26:10;;;;;;;2.80;1.10;;;7.30;93.30;;;;;;4868529;29;20066;-89
2022/09/30 01:29:16;;;;;;;2.25;0.90;;;7.30;93.30;;;;;;4869120;29;20063;-90
2022/09/30 01:31:51;;;;;;;3.53;0.93;;;7.20;93.30;;;;;;4834931;29;20519;-89
2022/09/30 01:34:37;;;;;;;2.25;1.25;;;7.20;93.30;;;;;;4848932;29;20422;-90
2022/09/30 01:37:30;;;;;;;1.98;1.00;;;7.20;93.30;;;;;;4840567;29;20061;-89
2022/09/30 01:40:24;;;;;;;1.98;0.93;;;7.30;93.40;;;;;;4858105;29;20068;-90
2022/09/30 01:43:20;;;;;;;1.63;0.90;;;7.20;93.30;;;;;;4833342;29;20045;-90
2022/09/30 01:45:57;;;;;;;1.80;0.80;;;7.20;93.30;;;;;;4848248;29;20054;-90
2022/09/30 01:49:01;;;;;;;1.98;0.90;;;7.20;93.30;;;;;;4829542;29;20483;-90
2022/09/30 01:51:37;;;;;;;3.03;1.13;;;7.10;93.30;;;;;;4855467;29;20101;-90
2022/09/30 01:54:21;;;;;;;2.72;1.13;;;7.10;93.40;;;;;;4843937;29;20490;-88
2022/09/30 01:56:52;;;;;;;2.92;0.90;;;7.10;93.40;;;;;;4847898;29;20084;-89
2022/09/30 01:59:38;;;;;;;2.97;1.48;;;7.10;93.40;;;;;;4852508;29;20497;-89
2022/09/30 02:02:28;;;;;;;2.38;1.10;;;7.10;93.40;;;;;;4844272;29;20054;-88
2022/09/30 02:05:01;;;;;;;2.13;1.10;;;7.10;93.40;;;;;;4850078;29;20148;-88
2022/09/30 02:08:09;;;;;;;2.00;0.75;;;7.00;93.40;;;;;;4843321;29;20049;-89
2022/09/30 02:10:57;;;;;;;1.77;0.77;;;7.00;93.40;;;;;;4833845;29;20057;-88
2022/09/30 02:13:39;;;;;;;2.13;1.00;;;7.00;93.40;;;;;;4857256;29;20125;-88
2022/09/30 02:16:13;;;;;;;2.47;1.00;;;7.00;93.40;;;;;;4844656;29;20049;-88
2022/09/30 02:18:46;;;;;;;1.98;0.60;;;7.00;93.40;;;;;;4847032;29;20050;-87
2022/09/30 02:21:21;;;;;;;2.17;0.80;;;7.00;93.40;;;;;;4829070;29;20061;-88
2022/09/30 02:23:53;;;;;;;1.67;0.88;;;7.00;93.40;;;;;;4828547;29;20092;-88
2022/09/30 02:26:24;;;;;;;1.10;0.68;;;6.90;93.40;;;;;;4851093;29;20086;-88
2022/09/30 02:29:17;;;;;;;2.13;0.90;;;6.90;93.40;;;;;;4827554;29;20049;-90
2022/09/30 02:31:52;;;;;;;2.63;0.95;;;6.90;93.40;;;;;;4855206;29;20073;-90
2022/09/30 02:34:41;;;;;;;1.77;1.00;;;6.90;93.50;;;;;;4859618;29;20112;-91
2022/09/30 02:37:15;;;;;;;1.90;0.75;;;6.90;93.50;;;;;;4853466;29;20046;-90
2022/09/30 02:40:14;;;;;;;2.08;0.77;;;6.80;93.50;;;;;;4849566;29;20056;-88
2022/09/30 02:42:44;;;;;;;2.72;1.20;;;6.80;93.40;;;;;;4846757;29;20049;-88
2022/09/30 02:45:15;;;;;;;2.38;1.08;;;6.80;93.50;;;;;;4847025;29;20045;-88
2022/09/30 02:48:17;;;;;;;2.37;0.90;;;6.80;93.50;;;;;;4851500;29;20619;-87
2022/09/30 02:51:12;;;;;;;3.70;1.20;;;6.80;93.50;;;;;;4855770;29;20314;-87
2022/09/30 02:53:49;;;;;;;2.95;1.05;;;6.80;93.40;;;;;;4835927;29;20073;-87
2022/09/30 02:56:43;;;;;;;2.00;0.80;;;6.70;93.50;;;;;;4832399;29;20148;-88
2022/09/30 02:59:10;;;;;;;1.92;0.90;;;6.70;93.40;;;;;;4828639;29;20137;-89
2022/09/30 03:01:40;;;;;;;2.47;1.10;;;6.70;93.50;;;;;;4828772;29;20076;-88
2022/09/30 03:04:11;;;;;;;2.60;1.42;;;6.70;93.50;;;;;;4844175;29;20053;-89
2022/09/30 03:06:39;;;;;;;3.17;0.98;;;6.70;93.50;;;;;;4847171;29;20057;-89
2022/09/30 03:09:07;;;;;;;3.35;1.15;;;6.70;93.50;;;;;;4863569;29;20057;-89
2022/09/30 03:11:37;;;;;;;2.90;1.27;;;6.70;93.50;;;;;;4846177;29;20095;-89
2022/09/30 03:14:51;;;;;;;2.80;1.23;;;6.70;93.50;;;;;;4848500;29;20144;-89
2022/09/30 03:17:18;;;;;;;2.45;1.02;;;6.70;93.50;;;;;;4848961;29;20056;-89
2022/09/30 03:19:49;;;;;;;3.03;1.15;;;6.60;93.50;;;;;;4856480;29;20049;-88
2022/09/30 03:22:34;;;;;;;2.22;1.13;;;6.60;93.50;;;;;;4857945;29;20116;-87
2022/09/30 03:25:12;;;;;;;2.38;1.23;;;6.70;93.50;;;;;;4875219;29;20050;-88
2022/09/30 03:28:04;;;;;;;2.08;0.80;;;6.60;93.50;;;;;;4833269;29;20057;-88
2022/09/30 03:30:37;;;;;;;1.73;0.80;;;6.60;93.50;;;;;;4842513;29;20061;-88
2022/09/30 03:33:07;;;;;;;;;;;6.60;93.50;;;;;;4831193;29;20064;-89
2022/09/30 03:36:04;;;;;;;2.47;1.23;;;6.50;93.50;;;;;;4837147;29;19983;-88
2022/09/30 03:38:49;;;;;;;1.50;0.75;;;6.50;93.50;;;;;;4833111;29;20049;-89
2022/09/30 03:41:23;;;;;;;2.05;1.05;;;6.50;93.40;;;;;;4832663;29;20045;-88
2022/09/30 03:43:56;;;;;;;2.03;0.98;;;6.50;93.50;;;;;;4860932;29;20046;-89
2022/09/30 03:46:45;;;;;;;2.35;1.20;;;6.50;93.50;;;;;;4850630;29;20053;-89
2022/09/30 03:49:22;;;;;;;2.90;1.23;;;6.50;93.50;;;;;;4845578;29;20057;-89
2022/09/30 03:51:49;;;;;;;2.17;1.00;;;6.50;93.50;;;;;;4845863;29;20045;-89
2022/09/30 03:54:21;;;;;;;1.85;0.88;;;6.40;93.60;;;;;;4841734;29;20046;-89
2022/09/30 03:56:49;;;;;;;2.50;1.27;;;6.40;93.60;;;;;;4834095;29;20050;-89
2022/09/30 03:59:29;;;;;;;2.05;1.15;;;6.40;93.60;;;;;;4831962;29;20057;-89
2022/09/30 04:01:59;;;;;;;5.78;1.48;;;6.40;93.60;;;;;;4830487;29;20059;-89
2022/09/30 04:04:26;;;;;;;2.72;1.25;;;6.40;93.60;;;;;;4830031;29;20050;-88
2022/09/30 04:06:53;;;;;;;2.63;1.00;;;6.40;93.60;;;;;;4839165;29;20084;-87
2022/09/30 04:09:21;;;;;;;1.92;0.85;;;6.40;93.60;;;;;;4833428;29;20452;-88
2022/09/30 04:11:49;;;;;;;2.03;1.00;;;6.40;93.60;;;;;;4839017;29;20390;-90
2022/09/30 04:14:19;;;;;;;1.70;0.80;;;6.40;93.60;;;;;;4830674;29;20177;-88
2022/09/30 04:16:46;;;;;;;2.20;0.80;;;6.40;93.60;;;;;;4837320;29;20050;-90
2022/09/30 04:19:19;;;;;;;1.50;0.75;;;6.40;93.60;;;;;;4857067;29;20050;-90
2022/09/30 04:21:46;;;;;;;1.83;0.75;;;6.40;93.60;;;;;;4834804;29;20467;-89
2022/09/30 04:24:15;;;;;;;2.58;1.00;;;6.40;93.60;;;;;;4840335;29;20390;-90
2022/09/30 04:26:42;;;;;;;2.40;1.10;;;6.40;93.60;;;;;;4848569;29;20065;-89
2022/09/30 04:29:09;;;;;;;1.63;0.68;;;6.30;93.60;;;;;;4850108;29;20061;-89
2022/09/30 04:31:37;;;;;;;1.83;0.90;;;6.30;93.60;;;;;;4826779;29;20090;-90
2022/09/30 04:34:04;;;;;;;2.15;0.77;;;6.30;93.60;;;;;;4860574;29;20057;-90
2022/09/30 04:36:31;;;;;;;2.35;1.00;;;6.30;93.60;;;;;;4846145;29;20054;-91
2022/09/30 04:38:59;;;;;;;2.85;1.10;;;6.30;93.60;;;;;;4854756;29;20136;-90
2022/09/30 04:41:26;;;;;;;2.15;1.10;;;6.30;93.60;;;;;;4835336;29;20465;-90
2022/09/30 04:43:55;;;;;;;2.75;1.33;;;6.30;93.60;;;;;;4845063;29;20049;-90
2022/09/30 04:46:22;;;;;;;2.35;1.17;;;6.20;93.60;;;;;;4845436;29;20049;-90
2022/09/30 04:48:49;;;;;;;3.15;1.27;;;6.30;93.70;;;;;;4844837;29;20050;-90
2022/09/30 04:51:19;;;;;;;1.80;0.95;;;6.20;93.60;;;;;;4830208;29;20050;-90
2022/09/30 04:53:48;;;;;;;2.70;1.30;;;6.20;93.70;;;;;;4850628;29;20053;-90
2022/09/30 04:56:18;;;;;;;3.22;1.77;;;6.20;93.70;;;;;;4855744;29;20343;-89
2022/09/30 04:58:48;;;;;;;2.85;0.93;;;6.20;93.70;;;;;;4848615;29;20072;-90
2022/09/30 05:01:18;;;;;;;2.70;1.10;;;6.20;93.70;;;;;;4848346;29;20793;-88
2022/09/30 05:03:47;;;;;;;2.38;1.10;;;6.20;93.70;;;;;;4861515;29;20049;-87
2022/09/30 05:06:14;;;;;;;1.83;0.90;;;6.20;93.70;;;;;;4841583;29;20061;-87
2022/09/30 05:08:42;;;;;;;2.53;1.27;;;6.20;93.70;;;;;;4831870;29;20153;-87
2022/09/30 05:11:20;;;;;;;2.65;1.20;;;6.10;93.60;;;;;;4848431;29;20140;-88
2022/09/30 05:13:49;;;;;;;2.03;1.00;;;6.20;93.70;;;;;;4836020;29;20124;-89
2022/09/30 05:16:18;;;;;;;2.58;1.17;;;6.10;93.70;;;;;;4826762;29;20045;-87
2022/09/30 05:18:45;;;;;;;2.22;1.20;;;6.10;93.70;;;;;;4836983;29;20037;-90
2022/09/30 05:21:15;;;;;;;1.60;0.82;;;6.10;93.70;;;;;;4869935;29;20050;-90
2022/09/30 05:23:43;;;;;;;2.45;0.98;;;6.10;93.70;;;;;;4843810;29;20050;-91
2022/09/30 05:26:10;;;;;;;2.13;0.93;;;6.10;93.70;;;;;;4824453;29;20133;-90
2022/09/30 05:28:40;;;;;;;3.10;1.33;;;6.10;93.70;;;;;;4840118;29;20072;-91
2022/09/30 05:31:07;;;;;;;2.28;1.00;;;6.10;93.70;;;;;;4850776;29;20061;-90
2022/09/30 05:33:35;;;;;;;2.20;1.10;;;6.10;93.70;;;;;;4835436;29;20053;-89
2022/09/30 05:36:05;;;;;;;3.35;2.03;;;6.10;93.70;;;;;;4833347;29;20156;-90
2022/09/30 05:38:36;;;;;;;3.60;1.67;;;6.00;93.70;;;;;;4854439;29;20057;-88
2022/09/30 05:41:12;;;;;;;;;;;6.00;93.70;;;;;;4836986;29;20053;-89
2022/09/30 05:43:52;;;;;;;1.88;0.90;;;6.00;93.70;;;;;;4844861;29;19924;-89
2022/09/30 05:46:24;;;;;;;2.92;1.15;;;6.00;93.70;;;;;;4843958;29;20053;-90
2022/09/30 05:48:53;;;;;;;1.42;0.80;;;6.00;93.70;;;;;;4845680;29;20092;-92
2022/09/30 05:51:21;;;;;;;2.10;0.90;;;6.00;93.70;;;;;;4836040;29;20122;-92
2022/09/30 05:53:48;;;;;;;2.03;0.88;;;6.00;93.60;;;;;;4863546;29;20076;-93
2022/09/30 05:56:15;;;;;;;2.97;1.13;;;6.00;93.60;;;;;;4847890;29;20068;-88
2022/09/30 05:58:46;;;;;;;2.83;1.23;;;6.00;93.60;;;;;;4849568;29;20102;-88
2022/09/30 06:01:22;;;;;;;3.20;1.30;;;6.10;93.60;;;;;;4861532;29;20053;-88
2022/09/30 06:03:55;;;;;;;2.35;1.08;;;6.10;93.60;;;;;;4836189;29;20093;-93
2022/09/30 06:06:23;;;;;;;3.08;1.23;;;6.00;93.60;;;;;;4819832;29;20078;-88
2022/09/30 06:08:51;;;;;;;2.88;1.50;;;6.10;93.60;;;;;;4832415;29;20715;-93
2022/09/30 06:11:22;;;;;;;2.65;1.42;;;6.10;93.60;;;;;;4811861;29;20132;-93
2022/09/30 06:13:52;;;;;;;2.38;1.17;;;6.10;93.60;;;;;;4823489;29;20046;-91
2022/09/30 06:16:23;;;;;;;2.22;0.95;;;6.20;93.60;;;;;;4830686;29;20053;-91
2022/09/30 06:18:50;;;;;;;3.03;1.58;;;6.20;93.50;;;;;;4831958;29;20062;-90
2022/09/30 06:21:21;;;;;;;2.30;0.95;;;6.20;93.50;;;;;;4829951;29;20053;-92
2022/09/30 06:23:49;;;;;;;2.58;1.13;;;6.30;93.50;;;;;;4832096;29;20510;-91
2022/09/30 06:26:16;;;;;;;2.83;1.25;;;6.30;93.50;;;;;;4823669;29;20053;-87
2022/09/30 06:28:46;;;;;;;2.70;1.20;;;6.40;93.40;;;;;;4842249;29;20045;-88
2022/09/30 06:31:15;;;;;;;2.50;1.27;;;6.40;93.40;;;;;;4832536;29;20046;-88
2022/09/30 06:33:43;;;;;;;2.75;1.30;;;6.50;93.40;;;;;;4811511;29;20111;-87
2022/09/30 06:36:10;;;;;;;2.15;1.10;;;6.50;93.40;;;;;;4843578;29;20046;-88
2022/09/30 06:38:38;;;;;;;3.63;1.33;;;6.60;93.30;;;;;;4828550;29;20054;-88
2022/09/30 06:41:06;;;;;;;2.05;1.10;;;6.70;93.30;;;;;;4816570;29;20085;-88
2022/09/30 06:43:34;;;;;;;3.08;1.35;;;6.70;93.30;;;;;;4844115;29;20106;-90
2022/09/30 06:46:24;;;;;;;2.25;1.00;;;6.80;93.20;;;;;;4833534;29;20049;-94
2022/09/30 06:48:58;;;;;;;2.83;1.10;;;6.90;93.20;;;;;;4820195;29;20060;-92
2022/09/30 06:51:39;;;;;;;2.13;0.98;;;7.00;93.20;;;;;;4830714;29;20054;-89
2022/09/30 06:54:09;;;;;;;2.85;1.10;;;7.00;93.10;;;;;;4841086;29;20042;-92
2022/09/30 06:56:37;;;;;;;3.72;1.17;;;7.10;93.10;;;;;;4832345;29;20124;-91
2022/09/30 06:59:04;;;;;;;1.95;0.95;;;7.20;93.10;;;;;;4816619;29;20054;-92
2022/09/30 07:01:34;;;;;;;3.05;1.25;;;7.30;93.00;;;;;;4828920;29;20046;-90
2022/09/30 07:04:06;;;;;;;2.55;1.10;;;7.40;93.00;;;;;;4817214;29;20046;-90
2022/09/30 07:06:36;;;;;;;2.28;1.00;;;7.40;93.00;;;;;;4832142;29;20073;-89
2022/09/30 07:09:05;;;;;;;2.15;1.08;;;7.50;93.00;;;;;;4842036;29;20050;-89
2022/09/30 07:11:32;;;;;;;2.00;1.02;;;7.50;92.90;;;;;;4831935;29;20056;-89
2022/09/30 07:14:00;;;;;;;3.60;0.90;;;7.60;92.90;;;;;;4832420;29;20052;-87
2022/09/30 07:16:27;;;;;;;2.25;1.00;;;7.70;92.90;;;;;;4852264;29;20198;-89
2022/09/30 07:18:54;;;;;;;4.28;1.58;;;7.80;92.90;;;;;;4847909;29;20065;-90
2022/09/30 07:21:22;;;;;;;2.55;0.98;;;7.80;92.90;;;;;;4844344;29;20051;-89
2022/09/30 07:23:52;;;;;;;2.40;1.23;;;7.90;92.80;;;;;;4822920;29;20102;-88
2022/09/30 07:26:21;;;;;;;3.80;1.40;;;8.00;92.80;;;;;;4802940;29;20065;-86
2022/09/30 07:28:49;;;;;;;3.97;1.67;;;8.10;92.80;;;;;;4827283;29;20094;-87
2022/09/30 07:31:22;;;;;;;3.65;1.80;;;8.20;92.80;;;;;;4829200;29;20050;-88
2022/09/30 07:34:08;;;;;;;3.83;1.95;;;8.20;92.70;;;;;;4847932;29;20049;-88
2022/09/30 07:36:38;;;;;;;3.00;1.60;;;8.30;92.80;;;;;;4841571;29;20053;-87
2022/09/30 07:39:07;;;;;;;3.92;1.67;;;8.30;92.70;;;;;;4827426;29;20056;-87
2022/09/30 07:41:37;;;;;;;4.45;2.17;;;8.40;92.70;;;;;;4822720;29;20053;-87
2022/09/30 07:44:11;;;;;;;3.92;2.13;;;8.50;92.70;;;;;;4829452;29;20085;-87
2022/09/30 07:46:39;;;;;;;3.75;1.95;;;8.50;92.60;;;;;;4806838;29;20193;-87
2022/09/30 07:49:11;;;;;;;5.05;2.35;;;8.60;92.60;;;;;;4842069;29;20081;-87
2022/09/30 07:51:43;;;;;;;5.43;3.13;;;8.60;92.60;;;;;;4837719;29;20426;-86
2022/09/30 07:54:17;;;;;;;4.63;3.17;;;8.70;92.60;;;;;;4828637;29;20042;-88
2022/09/30 07:56:45;;;;;;;4.10;2.60;;;8.80;92.50;;;;;;4819270;29;20069;-88
2022/09/30 07:59:36;;;;;;;4.25;2.67;;;8.90;92.50;;;;;;4831634;29;20043;-88
2022/09/30 08:02:05;;;;;;;6.13;2.80;;;9.00;92.50;;;;;;4827988;29;20054;-84
2022/09/30 08:04:33;;;;;;;6.47;3.92;;;9.00;92.50;;;;;;4806922;29;20140;-90
2022/09/30 08:07:01;;;;;;;6.13;4.07;;;9.10;92.40;;;;;;4845617;29;20062;-87
2022/09/30 08:09:29;;;;;;;7.07;4.10;;;9.20;92.40;;;;;;4857917;29;20114;-87
2022/09/30 08:12:13;;;;;;;8.63;5.15;;;9.30;92.40;;;;;;4848312;29;20055;-87
2022/09/30 08:15:35;;;;;;;7.35;5.15;;;9.40;92.40;;;;;;4817987;29;20129;-86
2022/09/30 08:18:09;;;;;;;;;;;9.50;92.30;;;;;;4879401;29;20117;-90
2022/09/30 08:20:40;;;;;;;6.55;4.00;;;9.50;92.30;;;;;;4851574;29;19931;-91
2022/09/30 08:23:17;;;;;;;6.95;3.80;;;9.60;92.20;;;;;;4843047;29;20063;-90
2022/09/30 08:25:50;;;;;;;7.72;4.45;;;9.60;92.20;;;;;;4829443;29;20058;-91
2022/09/30 08:28:23;;;;;;;7.88;5.00;;;9.70;92.20;;;;;;4846838;29;20208;-91
2022/09/30 08:30:53;;;;;;;10.15;6.32;;;9.80;92.20;;;;;;4851171;29;20053;-91
2022/09/30 08:33:33;;;;;;;10.00;5.65;;;9.90;92.20;;;;;;4849675;29;20076;-92
2022/09/30 08:36:14;;;;;;;9.68;5.95;;;9.90;92.10;;;;;;4846212;29;20053;-91
2022/09/30 08:38:55;;;;;;;8.30;5.55;;;10.00;92.10;;;;;;4860129;29;20086;-89
2022/09/30 08:41:33;;;;;;;7.32;4.75;;;10.10;92.10;;;;;;4839809;29;20105;-90
2022/09/30 08:44:24;;;;;;;8.15;5.55;;;10.10;92.10;;;;;;4846506;29;20057;-90
2022/09/30 08:47:12;;;;;;;10.10;7.00;;;10.20;92.10;;;;;;4829640;29;20156;-91
2022/09/30 08:49:52;;;;;;;9.90;6.75;;;10.30;92.10;;;;;;4846184;29;20098;-93
2022/09/30 08:52:35;;;;;;;9.48;6.35;;;10.40;92.00;;;;;;4852744;29;20050;-86
2022/09/30 08:55:30;;;;;;;9.57;6.65;;;10.50;92.00;;;;;;4834580;29;20054;-90
2022/09/30 08:58:02;;;;;;;9.40;6.95;;;10.50;92.00;;;;;;4853981;29;20092;-92
2022/09/30 09:00:33;;;;;;;9.27;6.68;;;10.60;92.00;;;;;;4856919;29;20049;-92
2022/09/30 09:03:03;;;;;;;9.98;7.00;;;10.70;91.90;;;;;;4816732;29;20054;-90
2022/09/30 09:06:00;;;;;;;7.40;5.53;;;10.80;92.20;;;;;;4844597;29;20068;-88
2022/09/30 09:08:47;;;;;;;12.25;5.60;;;10.80;91.90;;;;;;4838301;29;20041;-87
2022/09/30 09:11:31;;;;;;;9.10;6.05;;;10.90;91.90;;;;;;4872264;29;20058;-88
2022/09/30 09:14:15;;;;;;;7.70;5.13;;;11.00;91.90;;;;;;4880132;29;20044;-89
2022/09/30 09:17:21;;;;;;;7.85;5.20;;;11.10;91.80;;;;;;4855282;29;20056;-86
2022/09/30 09:20:09;;;;;;;7.55;3.92;;;11.20;91.80;;;;;;4861305;29;20484;-87
2022/09/30 09:22:44;;;;;;;7.40;5.68;;;11.20;91.70;;;;;;4857247;29;20056;-88
2022/09/30 09:25:31;;;;;;;11.10;8.15;;;11.30;91.70;;;;;;4863138;29;20054;-87
2022/09/30 09:28:04;;;;;;;10.68;7.15;;;11.40;91.60;;;;;;4835282;29;20050;-87
2022/09/30 09:30:40;;;;;;;15.15;11.05;;;11.50;91.60;;;;;;4847565;29;20043;-87
2022/09/30 09:33:40;;;;;;;12.98;9.80;;;11.60;91.50;;;;;;4855063;29;20470;-87
2022/09/30 09:36:34;;;;;;;9.57;7.15;;;11.70;91.30;;;;;;4846127;29;20184;-88
2022/09/30 09:39:40;;;;;;;11.48;7.60;;;11.80;91.40;;;;;;4852339;29;20082;-86
2022/09/30 09:42:23;;;;;;;13.23;10.48;;;11.80;91.30;;;;;;4860261;29;20053;-86
2022/09/30 09:45:10;;;;;;;14.30;9.25;;;12.00;91.20;;;;;;4847453;29;20144;-88
2022/09/30 09:47:41;;;;;;;12.18;8.98;;;12.10;91.10;;;;;;4833650;29;20232;-88
2022/09/30 09:50:37;;;;;;;11.93;9.63;;;12.20;91.10;;;;;;4833725;29;20045;-88
2022/09/30 09:53:30;;;;;;;12.63;9.40;;;12.30;91.00;;;;;;4838520;29;20052;-86
2022/09/30 09:56:03;;;;;;;12.57;7.82;;;12.40;90.90;;;;;;4856719;29;20049;-88
2022/09/30 09:58:33;;;;;;;12.57;8.63;;;12.50;90.90;;;;;;4855964;29;20103;-87
2022/09/30 10:01:20;;;;;;;14.85;10.60;;;12.50;91.10;;;;;;4837927;29;20045;-87
2022/09/30 10:04:29;;;;;;;21.65;14.60;;;12.60;90.70;;;;;;4854040;29;20159;-89
2022/09/30 10:07:02;;;;;;;15.68;11.48;;;12.90;90.20;;;;;;4838860;29;20083;-87
2022/09/30 10:09:41;;;;;;;13.90;10.98;;;13.00;90.20;;;;;;4831961;29;20049;-87
2022/09/30 10:12:10;;;;;;;14.82;11.55;;;13.10;90.10;;;;;;4846509;29;20084;-85
2022/09/30 10:14:50;;;;;;;13.15;10.13;;;13.10;90.00;;;;;;4845211;29;20144;-85
2022/09/30 10:17:21;;;;;;;12.88;8.57;;;13.20;90.00;;;;;;4845813;29;20466;-87
2022/09/30 10:19:53;;;;;;;12.10;8.73;;;13.20;90.00;;;;;;4830181;29;20057;-86
2022/09/30 10:22:29;;;;;;;9.63;7.05;;;13.30;90.00;;;;;;4846739;29;20049;-88
2022/09/30 10:25:23;;;;;;;9.98;7.68;;;13.30;90.00;;;;;;4843728;29;20117;-87
2022/09/30 10:27:53;;;;;;;10.57;8.93;;;13.40;89.90;;;;;;4850651;29;20049;-86
2022/09/30 10:30:43;;;;;;;11.18;8.15;;;13.40;89.90;;;;;;4844326;29;20057;-86
2022/09/30 10:33:23;;;;;;;12.00;8.48;;;13.50;89.70;;;;;;4855858;29;20041;-87
2022/09/30 10:35:59;;;;;;;10.32;8.60;;;13.50;89.40;;;;;;4816247;29;20054;-87
2022/09/30 10:38:30;;;;;;;9.07;6.90;;;13.60;89.40;;;;;;4846057;29;20058;-86
2022/09/30 10:41:05;;;;;;;10.02;8.25;;;13.60;89.40;;;;;;4852053;29;20102;-86
2022/09/30 10:43:46;;;;;;;10.70;7.93;;;13.70;89.20;;;;;;4834243;29;20518;-87
2022/09/30 10:46:30;;;;;;;9.70;7.45;;;13.80;89.00;;;;;;4848257;29;20045;-86
2022/09/30 10:49:26;;;;;;;9.98;7.63;;;13.80;89.10;;;;;;4857231;29;20060;-87
2022/09/30 10:52:02;;;;;;;8.48;7.05;;;13.80;88.90;;;;;;4845117;29;20058;-86
2022/09/30 10:54:43;;;;;;;12.98;9.98;;;13.80;88.90;;;;;;4827107;29;20141;-87
2022/09/30 10:57:21;;;;;;;12.40;9.02;;;13.90;87.90;;;;;;4830688;29;20128;-86
2022/09/30 10:59:49;;;;;;;10.65;8.63;;;14.00;88.00;;;;;;4846488;29;20082;-87
2022/09/30 11:02:48;;;;;;;10.52;8.77;;;14.00;87.90;;;;;;4832300;29;20049;-87
2022/09/30 11:05:23;;;;;;;;;;;14.10;87.70;;;;;;4861027;29;20519;-87
2022/09/30 11:08:33;;;;;;;7.80;6.75;;;14.10;87.90;;;;;;4864702;29;19924;-84
2022/09/30 11:11:26;;;;;;;11.57;8.32;;;14.20;87.60;;;;;;4853564;29;20136;-83
2022/09/30 11:14:09;;;;;;;10.75;8.60;;;14.30;87.00;;;;;;4865501;29;20136;-84
2022/09/30 11:17:05;;;;;;;8.77;7.43;;;14.40;86.80;;;;;;4862834;29;20105;-91
2022/09/30 11:19:57;;;;;;;9.55;7.68;;;14.50;86.90;;;;;;4858789;29;20056;-92
2022/09/30 11:22:59;;;;;;;9.75;7.50;;;14.50;86.80;;;;;;4834938;29;20146;-90
2022/09/30 11:25:57;;;;;;;11.75;9.05;;;14.60;86.40;;;;;;4851134;29;20169;-91
2022/09/30 11:28:36;;;;;;;10.20;8.52;;;14.60;85.70;;;;;;4830700;29;20049;-86
2022/09/30 11:31:18;;;;;;;7.95;6.80;;;14.70;85.30;;;;;;4850257;29;20053;-86
2022/09/30 11:33:58;;;;;;;8.85;7.60;;;14.80;85.20;;;;;;4831441;29;20528;-87
2022/09/30 11:37:10;;;;;;;9.13;7.05;;;14.80;84.90;;;;;;4833857;29;20414;-86
2022/09/30 11:39:55;;;;;;;7.80;6.25;;;14.90;84.50;;;;;;4837060;29;20132;-86
2022/09/30 11:42:39;;;;;;;11.93;9.88;;;15.10;84.40;;;;;;4851814;29;20054;-86
2022/09/30 11:45:44;;;;;;;11.23;9.60;;;15.20;82.50;;;;;;4843856;29;20057;-85
2022/09/30 11:48:37;;;;;;;10.35;7.45;;;15.30;82.60;;;;;;4871454;29;20056;-84
2022/09/30 11:51:26;;;;;;;7.90;5.63;;;15.20;83.10;;;;;;4853262;29;20045;-87
2022/09/30 11:54:05;;;;;;;7.88;6.18;;;15.20;83.60;;;;;;4844781;29;20118;-85
2022/09/30 11:56:47;;;;;;;9.57;6.75;;;15.30;83.10;;;;;;4830096;29;20049;-86
2022/09/30 11:59:32;;;;;;;10.75;7.88;;;15.40;83.20;;;;;;4858027;29;20045;-88
2022/09/30 12:02:30;;;;;;;9.82;7.13;;;15.50;82.60;;;;;;4830225;29;20467;-88
2022/09/30 12:05:16;;;;;;;9.10;7.22;;;15.60;82.90;;;;;;4846726;29;20057;-87
2022/09/30 12:07:59;;;;;;;11.02;8.15;;;15.70;82.50;;;;;;4832802;29;20060;-87
2022/09/30 12:10:35;;;;;;;10.65;7.68;;;15.70;81.80;;;;;;4833886;29;20137;-86
2022/09/30 12:13:11;;;;;;;10.27;6.88;;;15.80;81.80;;;;;;4851546;29;20075;-88
2022/09/30 12:15:43;;;;;;;9.57;6.80;;;15.80;81.20;;;;;;4846359;29;20140;-87
2022/09/30 12:18:23;;;;;;;8.52;5.85;;;15.90;81.20;;;;;;4854351;29;20110;-86
2022/09/30 12:21:01;;;;;;;9.75;6.75;;;15.90;81.30;;;;;;4824297;29;20115;-84
2022/09/30 12:23:49;;;;;;;7.68;5.15;;;15.90;80.90;;;;;;4849448;29;20052;-85
2022/09/30 12:26:21;;;;;;;7.50;5.00;;;15.90;81.30;;;;;;4855211;29;20059;-85
2022/09/30 12:32:15;;;;;;;6.93;4.50;;;15.80;81.60;;;;;;4875782;29;20041;-86
2022/09/30 12:34:42;;;;;;;;;;;15.80;81.40;;;;;;4861949;29;20050;-85
2022/09/30 12:37:15;;;;;;;6.13;3.75;;;15.80;81.40;;;;;;4854384;29;19923;-85
2022/09/30 12:39:56;;;;;;;4.90;2.90;;;15.90;81.50;;;;;;4851214;29;20041;-85
2022/09/30 12:42:42;;;;;;;10.43;3.53;;;15.90;81.30;;;;;;4847739;29;20140;-85
2022/09/30 12:45:28;;;;;;;5.43;3.33;;;16.00;80.90;;;;;;4849381;29;20045;-89
2022/09/30 12:48:07;;;;;;;3.72;2.33;;;16.00;81.00;;;;;;4836630;29;20493;-84
2022/09/30 12:50:56;;;;;;;3.88;2.58;;;16.00;81.10;;;;;;4878034;29;20057;-85
2022/09/30 12:53:29;;;;;;;3.38;2.40;;;16.20;80.60;;;;;;4853151;29;20148;-85
2022/09/30 12:56:14;;;;;;;2.95;2.05;;;16.20;80.30;;;;;;4866165;29;20129;-83
2022/09/30 12:58:48;;;;;;;3.70;2.42;;;16.30;80.20;;;;;;4818570;29;20090;-85
2022/09/30 13:01:24;;;;;;;3.80;2.28;;;16.40;79.80;;;;;;4829789;29;20053;-85
2022/09/30 13:04:00;;;;;;;2.40;1.63;;;16.40;79.60;;;;;;4830094;29;20054;-84
2022/09/30 13:06:44;;;;;;;3.40;2.35;;;16.30;79.80;;;;;;4852034;29;20061;-82
2022/09/30 13:09:35;;;;;;;4.18;2.50;;;16.20;79.80;;;;;;4848092;29;20084;-82
2022/09/30 13:12:02;;;;;;;3.47;1.80;;;16.20;78.80;;;;;;4833056;29;20081;-84
2022/09/30 13:14:38;;;;;;;2.10;1.20;;;16.20;79.30;;;;;;4850771;29;20446;-84
2022/09/30 13:17:09;;;;;;;2.40;1.48;;;16.20;79.50;;;;;;4843536;29;20076;-85
2022/09/30 13:19:47;;;;;;;1.85;1.00;;;16.20;79.30;;;;;;4855520;29;20079;-84
2022/09/30 13:22:20;;;;;;;2.05;1.08;;;16.20;79.50;;;;;;4876236;29;20091;-87
2022/09/30 13:24:59;;;;;;;1.67;1.00;;;16.20;79.20;;;;;;4847695;29;20049;-86
2022/09/30 13:27:45;;;;;;;1.15;0.63;;;16.30;79.10;;;;;;4857633;29;20052;-87
2022/09/30 13:30:13;;;;;;;1.05;0.57;;;16.30;79.10;;;;;;4860507;29;20136;-89
2022/09/30 13:32:46;;;;;;;1.42;0.70;;;16.40;79.10;;;;;;4848828;29;20110;-87
2022/09/30 13:35:49;;;;;;;1.70;0.73;;;16.40;78.80;;;;;;4835450;29;20052;-87
2022/09/30 13:38:31;;;;;;;1.00;0.60;;;16.50;78.70;;;;;;4837520;29;20144;-86
2022/09/30 13:41:13;;;;;;;2.40;0.80;;;16.40;79.20;;;;;;4835830;29;20153;-87
2022/09/30 13:44:09;;;;;;;1.63;0.40;;;16.30;79.00;;;;;;4859905;29;20485;-88
2022/09/30 13:46:48;;;;;;;1.55;0.60;;;16.40;78.80;;;;;;4831375;29;20110;-87
2022/09/30 13:49:32;;;;;;;1.58;0.52;;;16.40;78.80;;;;;;4849694;29;20133;-88
2022/09/30 13:52:07;;;;;;;1.40;0.50;;;16.50;78.70;;;;;;4853271;29;20482;-85